sensor_id;sensor_type;location;lat;lon;timestamp;temperature;humidity
6696;DHT22;3385;48.928;10.330;2022-09-03T00:00:48;12.60;99.90
6696;DHT22;3385;48.928;10.330;2022-09-03T00:03:22;12.60;99.90
6696;DHT22;3385;48.928;10.330;2022-09-03T00:09:06;12.70;99.90
6696;DHT22;3385;48.928;10.330;2022-09-03T00:12:11;12.70;99.90
6696;DHT22;3385;48.928;10.330;2022-09-03T00:14:46;12.70;99.90
6696;DHT22;3385;48.928;10.330;2022-09-03T00:17:16;12.70;99.90
6696;DHT22;3385;48.928;10.330;2022-09-03T00:19:50;12.80;99.90
6696;DHT22;3385;48.928;10.330;2022-09-03T00:22:22;12.80;99.90
6696;DHT22;3385;48.928;10.330;2022-09-03T00:24:49;12.80;99.90
6696;DHT22;3385;48.928;10.330;2022-09-03T00:27:25;12.80;99.90
6696;DHT22;3385;48.928;10.330;2022-09-03T00:35:42;12.80;99.90
6696;DHT22;3385;48.928;10.330;2022-09-03T00:38:09;12.90;99.90
6696;DHT22;3385;48.928;10.330;2022-09-03T00:52:41;12.90;99.90
6696;DHT22;3385;48.928;10.330;2022-09-03T00:57:56;13.00;99.90
6696;DHT22;3385;48.928;10.330;2022-09-03T01:00:23;12.90;99.90
6696;DHT22;3385;48.928;10.330;2022-09-03T01:12:02;12.70;99.90
6696;DHT22;3385;48.928;10.330;2022-09-03T01:14:33;12.70;99.90
6696;DHT22;3385;48.928;10.330;2022-09-03T01:25:49;12.40;99.90
6696;DHT22;3385;48.928;10.330;2022-09-03T01:28:26;12.40;99.90
6696;DHT22;3385;48.928;10.330;2022-09-03T01:33:51;12.40;99.90
6696;DHT22;3385;48.928;10.330;2022-09-03T01:36:29;12.40;99.90
6696;DHT22;3385;48.928;10.330;2022-09-03T01:39:04;12.50;99.90
6696;DHT22;3385;48.928;10.330;2022-09-03T01:41:56;12.50;99.90
6696;DHT22;3385;48.928;10.330;2022-09-03T01:58:22;12.40;99.90
6696;DHT22;3385;48.928;10.330;2022-09-03T02:00:55;12.40;99.90
6696;DHT22;3385;48.928;10.330;2022-09-03T02:03:24;12.30;99.90
6696;DHT22;3385;48.928;10.330;2022-09-03T02:05:50;12.20;99.90
6696;DHT22;3385;48.928;10.330;2022-09-03T02:08:18;12.20;99.90
6696;DHT22;3385;48.928;10.330;2022-09-03T02:10:50;12.10;99.90
6696;DHT22;3385;48.928;10.330;2022-09-03T02:13:24;12.10;99.90
6696;DHT22;3385;48.928;10.330;2022-09-03T02:15:52;12.00;99.90
6696;DHT22;3385;48.928;10.330;2022-09-03T02:18:30;12.00;99.90
6696;DHT22;3385;48.928;10.330;2022-09-03T02:20:58;11.90;99.90
6696;DHT22;3385;48.928;10.330;2022-09-03T02:23:25;11.90;99.90
6696;DHT22;3385;48.928;10.330;2022-09-03T02:25:55;11.90;99.90
6696;DHT22;3385;48.928;10.330;2022-09-03T02:28:22;11.90;99.90
6696;DHT22;3385;48.928;10.330;2022-09-03T02:30:50;11.90;99.90
6696;DHT22;3385;48.928;10.330;2022-09-03T02:33:15;11.90;99.90
6696;DHT22;3385;48.928;10.330;2022-09-03T02:35:42;11.90;99.90
6696;DHT22;3385;48.928;10.330;2022-09-03T02:38:14;11.90;99.90
6696;DHT22;3385;48.928;10.330;2022-09-03T02:40:41;12.00;99.90
6696;DHT22;3385;48.928;10.330;2022-09-03T02:43:17;12.00;99.90
6696;DHT22;3385;48.928;10.330;2022-09-03T02:45:51;12.00;99.90
6696;DHT22;3385;48.928;10.330;2022-09-03T02:48:22;11.90;99.90
6696;DHT22;3385;48.928;10.330;2022-09-03T02:50:48;11.90;99.90
6696;DHT22;3385;48.928;10.330;2022-09-03T02:53:15;11.90;99.90
6696;DHT22;3385;48.928;10.330;2022-09-03T02:55:40;11.90;99.90
6696;DHT22;3385;48.928;10.330;2022-09-03T02:58:06;11.90;99.90
6696;DHT22;3385;48.928;10.330;2022-09-03T03:00:36;11.90;99.90
6696;DHT22;3385;48.928;10.330;2022-09-03T03:03:03;11.80;99.90
6696;DHT22;3385;48.928;10.330;2022-09-03T03:05:41;11.80;99.90
6696;DHT22;3385;48.928;10.330;2022-09-03T03:08:07;11.80;99.90
6696;DHT22;3385;48.928;10.330;2022-09-03T03:10:33;11.90;99.90
6696;DHT22;3385;48.928;10.330;2022-09-03T03:12:59;11.90;99.90
6696;DHT22;3385;48.928;10.330;2022-09-03T03:15:25;11.90;99.90
6696;DHT22;3385;48.928;10.330;2022-09-03T03:17:55;11.90;99.90
6696;DHT22;3385;48.928;10.330;2022-09-03T03:20:21;12.00;99.90
6696;DHT22;3385;48.928;10.330;2022-09-03T03:22:47;12.10;99.90
6696;DHT22;3385;48.928;10.330;2022-09-03T03:25:13;12.10;99.90
6696;DHT22;3385;48.928;10.330;2022-09-03T03:27:39;12.20;99.90
6696;DHT22;3385;48.928;10.330;2022-09-03T03:30:08;12.20;99.90
6696;DHT22;3385;48.928;10.330;2022-09-03T03:32:38;12.20;99.90
6696;DHT22;3385;48.928;10.330;2022-09-03T03:35:05;12.20;99.90
6696;DHT22;3385;48.928;10.330;2022-09-03T03:37:32;12.20;99.90
6696;DHT22;3385;48.928;10.330;2022-09-03T03:39:58;12.20;99.90
6696;DHT22;3385;48.928;10.330;2022-09-03T03:42:24;12.30;99.90
6696;DHT22;3385;48.928;10.330;2022-09-03T03:44:50;12.30;99.90
6696;DHT22;3385;48.928;10.330;2022-09-03T03:47:15;12.30;99.90
6696;DHT22;3385;48.928;10.330;2022-09-03T03:49:43;12.30;99.90
6696;DHT22;3385;48.928;10.330;2022-09-03T03:52:09;12.30;99.90
6696;DHT22;3385;48.928;10.330;2022-09-03T03:54:34;12.40;99.90
6696;DHT22;3385;48.928;10.330;2022-09-03T03:57:00;12.40;99.90
6696;DHT22;3385;48.928;10.330;2022-09-03T03:59:26;12.40;99.90
6696;DHT22;3385;48.928;10.330;2022-09-03T04:01:54;12.40;99.90
6696;DHT22;3385;48.928;10.330;2022-09-03T04:04:20;12.40;99.90
6696;DHT22;3385;48.928;10.330;2022-09-03T04:06:45;12.50;99.90
6696;DHT22;3385;48.928;10.330;2022-09-03T04:09:11;12.50;99.90
6696;DHT22;3385;48.928;10.330;2022-09-03T04:11:37;12.50;99.90
6696;DHT22;3385;48.928;10.330;2022-09-03T04:14:03;12.50;99.90
6696;DHT22;3385;48.928;10.330;2022-09-03T04:16:29;12.60;99.90
6696;DHT22;3385;48.928;10.330;2022-09-03T04:18:57;12.60;99.90
6696;DHT22;3385;48.928;10.330;2022-09-03T04:21:25;12.60;99.90
6696;DHT22;3385;48.928;10.330;2022-09-03T04:23:52;12.60;99.90
6696;DHT22;3385;48.928;10.330;2022-09-03T04:26:23;12.70;99.90
6696;DHT22;3385;48.928;10.330;2022-09-03T04:28:49;12.70;99.90
6696;DHT22;3385;48.928;10.330;2022-09-03T04:31:17;12.70;99.90
6696;DHT22;3385;48.928;10.330;2022-09-03T04:33:43;12.70;99.90
6696;DHT22;3385;48.928;10.330;2022-09-03T04:36:14;12.60;99.90
6696;DHT22;3385;48.928;10.330;2022-09-03T04:38:43;12.60;99.90
6696;DHT22;3385;48.928;10.330;2022-09-03T04:41:11;12.60;99.90
6696;DHT22;3385;48.928;10.330;2022-09-03T04:43:38;12.60;99.90
6696;DHT22;3385;48.928;10.330;2022-09-03T04:46:06;13.20;99.90
6696;DHT22;3385;48.928;10.330;2022-09-03T04:48:34;12.70;99.90
6696;DHT22;3385;48.928;10.330;2022-09-03T04:51:08;12.70;99.90
6696;DHT22;3385;48.928;10.330;2022-09-03T04:53:36;12.80;99.90
6696;DHT22;3385;48.928;10.330;2022-09-03T04:56:03;12.80;99.90
6696;DHT22;3385;48.928;10.330;2022-09-03T04:58:36;12.70;99.90
6696;DHT22;3385;48.928;10.330;2022-09-03T05:01:07;12.80;99.90
6696;DHT22;3385;48.928;10.330;2022-09-03T05:03:33;12.70;99.90
6696;DHT22;3385;48.928;10.330;2022-09-03T05:05:59;12.70;99.90
6696;DHT22;3385;48.928;10.330;2022-09-03T05:08:24;12.80;99.90
6696;DHT22;3385;48.928;10.330;2022-09-03T05:10:57;12.80;99.90
6696;DHT22;3385;48.928;10.330;2022-09-03T05:13:24;12.90;99.90
6696;DHT22;3385;48.928;10.330;2022-09-03T05:15:50;13.00;99.90
6696;DHT22;3385;48.928;10.330;2022-09-03T05:18:16;13.00;99.90
6696;DHT22;3385;48.928;10.330;2022-09-03T05:20:42;13.10;99.90
6696;DHT22;3385;48.928;10.330;2022-09-03T05:23:08;13.20;99.90
6696;DHT22;3385;48.928;10.330;2022-09-03T05:25:33;13.30;99.90
6696;DHT22;3385;48.928;10.330;2022-09-03T05:27:59;13.40;99.90
6696;DHT22;3385;48.928;10.330;2022-09-03T05:30:26;13.40;99.90
6696;DHT22;3385;48.928;10.330;2022-09-03T05:32:52;13.50;99.90
6696;DHT22;3385;48.928;10.330;2022-09-03T05:35:17;13.60;99.90
6696;DHT22;3385;48.928;10.330;2022-09-03T05:37:44;13.70;99.90
6696;DHT22;3385;48.928;10.330;2022-09-03T05:40:10;13.70;99.90
6696;DHT22;3385;48.928;10.330;2022-09-03T05:42:36;13.70;99.90
6696;DHT22;3385;48.928;10.330;2022-09-03T05:45:09;13.80;99.90
6696;DHT22;3385;48.928;10.330;2022-09-03T05:47:39;13.80;99.90
6696;DHT22;3385;48.928;10.330;2022-09-03T05:50:06;13.90;99.90
6696;DHT22;3385;48.928;10.330;2022-09-03T05:52:34;13.90;99.90
6696;DHT22;3385;48.928;10.330;2022-09-03T05:55:00;13.90;99.90
6696;DHT22;3385;48.928;10.330;2022-09-03T05:57:26;14.00;99.90
6696;DHT22;3385;48.928;10.330;2022-09-03T05:59:54;14.00;99.90
6696;DHT22;3385;48.928;10.330;2022-09-03T06:02:20;14.00;99.90
6696;DHT22;3385;48.928;10.330;2022-09-03T06:04:46;14.10;99.90
6696;DHT22;3385;48.928;10.330;2022-09-03T06:07:11;14.10;99.90
6696;DHT22;3385;48.928;10.330;2022-09-03T06:09:37;14.20;99.90
6696;DHT22;3385;48.928;10.330;2022-09-03T06:12:03;14.20;99.90
6696;DHT22;3385;48.928;10.330;2022-09-03T06:14:30;14.30;99.90
6696;DHT22;3385;48.928;10.330;2022-09-03T06:16:56;14.40;99.90
6696;DHT22;3385;48.928;10.330;2022-09-03T06:19:21;14.40;99.90
6696;DHT22;3385;48.928;10.330;2022-09-03T06:21:47;14.50;99.90
6696;DHT22;3385;48.928;10.330;2022-09-03T06:24:20;14.50;99.90
6696;DHT22;3385;48.928;10.330;2022-09-03T06:26:52;14.50;99.90
6696;DHT22;3385;48.928;10.330;2022-09-03T06:29:18;14.60;99.90
6696;DHT22;3385;48.928;10.330;2022-09-03T06:31:45;14.60;99.90
6696;DHT22;3385;48.928;10.330;2022-09-03T06:34:13;14.60;99.90
6696;DHT22;3385;48.928;10.330;2022-09-03T06:36:39;14.50;99.90
6696;DHT22;3385;48.928;10.330;2022-09-03T06:39:05;14.50;99.90
6696;DHT22;3385;48.928;10.330;2022-09-03T06:41:32;14.50;99.90
6696;DHT22;3385;48.928;10.330;2022-09-03T06:44:04;14.50;99.90
6696;DHT22;3385;48.928;10.330;2022-09-03T06:46:34;14.50;99.90
6696;DHT22;3385;48.928;10.330;2022-09-03T06:49:01;14.50;99.90
6696;DHT22;3385;48.928;10.330;2022-09-03T06:51:28;14.60;99.90
6696;DHT22;3385;48.928;10.330;2022-09-03T06:54:05;14.60;99.90
6696;DHT22;3385;48.928;10.330;2022-09-03T06:56:32;14.60;99.90
6696;DHT22;3385;48.928;10.330;2022-09-03T06:59:02;14.70;99.90
6696;DHT22;3385;48.928;10.330;2022-09-03T07:01:29;14.80;99.90
6696;DHT22;3385;48.928;10.330;2022-09-03T07:04:01;14.90;99.90
6696;DHT22;3385;48.928;10.330;2022-09-03T07:06:32;15.00;99.90
6696;DHT22;3385;48.928;10.330;2022-09-03T07:08:58;15.00;99.90
6696;DHT22;3385;48.928;10.330;2022-09-03T07:11:28;15.20;99.90
6696;DHT22;3385;48.928;10.330;2022-09-03T07:13:56;15.30;99.90
6696;DHT22;3385;48.928;10.330;2022-09-03T07:16:24;15.40;99.90
6696;DHT22;3385;48.928;10.330;2022-09-03T07:18:51;15.50;99.90
6696;DHT22;3385;48.928;10.330;2022-09-03T07:21:22;15.50;99.90
6696;DHT22;3385;48.928;10.330;2022-09-03T07:23:49;15.50;99.90
6696;DHT22;3385;48.928;10.330;2022-09-03T07:26:22;15.60;99.90
6696;DHT22;3385;48.928;10.330;2022-09-03T07:28:49;15.60;99.90
6696;DHT22;3385;48.928;10.330;2022-09-03T07:31:20;15.70;99.90
6696;DHT22;3385;48.928;10.330;2022-09-03T07:33:57;15.70;99.90
6696;DHT22;3385;48.928;10.330;2022-09-03T07:36:26;15.70;99.90
6696;DHT22;3385;48.928;10.330;2022-09-03T07:38:57;15.80;99.90
6696;DHT22;3385;48.928;10.330;2022-09-03T07:41:24;15.90;99.90
6696;DHT22;3385;48.928;10.330;2022-09-03T07:43:51;16.00;99.90
6696;DHT22;3385;48.928;10.330;2022-09-03T07:46:19;16.10;99.90
6696;DHT22;3385;48.928;10.330;2022-09-03T07:48:55;16.20;99.90
6696;DHT22;3385;48.928;10.330;2022-09-03T07:51:26;16.20;99.90
6696;DHT22;3385;48.928;10.330;2022-09-03T07:53:58;16.20;99.90
6696;DHT22;3385;48.928;10.330;2022-09-03T07:56:25;16.20;99.90
6696;DHT22;3385;48.928;10.330;2022-09-03T07:58:52;16.20;99.90
6696;DHT22;3385;48.928;10.330;2022-09-03T08:01:21;16.20;99.90
6696;DHT22;3385;48.928;10.330;2022-09-03T08:03:49;16.20;99.90
6696;DHT22;3385;48.928;10.330;2022-09-03T08:06:18;16.10;99.90
6696;DHT22;3385;48.928;10.330;2022-09-03T08:08:44;16.20;99.90
6696;DHT22;3385;48.928;10.330;2022-09-03T08:11:17;16.40;99.90
6696;DHT22;3385;48.928;10.330;2022-09-03T08:13:44;16.50;99.90
6696;DHT22;3385;48.928;10.330;2022-09-03T08:16:12;16.60;99.90
6696;DHT22;3385;48.928;10.330;2022-09-03T08:18:38;16.70;99.90
6696;DHT22;3385;48.928;10.330;2022-09-03T08:21:12;16.80;99.90
6696;DHT22;3385;48.928;10.330;2022-09-03T08:23:41;17.00;99.90
6696;DHT22;3385;48.928;10.330;2022-09-03T08:26:08;17.10;99.90
6696;DHT22;3385;48.928;10.330;2022-09-03T08:28:34;17.30;99.90
6696;DHT22;3385;48.928;10.330;2022-09-03T08:31:27;17.50;99.90
6696;DHT22;3385;48.928;10.330;2022-09-03T08:33:55;17.90;99.90
6696;DHT22;3385;48.928;10.330;2022-09-03T08:36:27;18.10;99.90
6696;DHT22;3385;48.928;10.330;2022-09-03T08:38:55;18.20;99.90
6696;DHT22;3385;48.928;10.330;2022-09-03T08:46:16;18.40;99.90
6696;DHT22;3385;48.928;10.330;2022-09-03T08:48:41;18.90;99.90
6696;DHT22;3385;48.928;10.330;2022-09-03T08:51:08;19.30;99.90
6696;DHT22;3385;48.928;10.330;2022-09-03T08:53:48;19.80;99.90
6696;DHT22;3385;48.928;10.330;2022-09-03T08:56:30;20.00;99.90
6696;DHT22;3385;48.928;10.330;2022-09-03T08:58:56;20.10;99.90
6696;DHT22;3385;48.928;10.330;2022-09-03T09:10:13;20.40;99.90
6696;DHT22;3385;48.928;10.330;2022-09-03T09:13:40;20.40;99.90
6696;DHT22;3385;48.928;10.330;2022-09-03T09:21:33;20.60;99.90
6696;DHT22;3385;48.928;10.330;2022-09-03T09:24:06;20.60;99.90
6696;DHT22;3385;48.928;10.330;2022-09-03T09:26:42;20.70;99.90
6696;DHT22;3385;48.928;10.330;2022-09-03T09:29:09;20.70;99.90
6696;DHT22;3385;48.928;10.330;2022-09-03T09:31:37;20.70;99.90
6696;DHT22;3385;48.928;10.330;2022-09-03T09:34:04;20.90;99.90
6696;DHT22;3385;48.928;10.330;2022-09-03T09:36:40;21.10;99.90
6696;DHT22;3385;48.928;10.330;2022-09-03T09:39:08;21.20;99.90
6696;DHT22;3385;48.928;10.330;2022-09-03T09:41:34;21.40;99.90
6696;DHT22;3385;48.928;10.330;2022-09-03T09:44:01;21.30;99.90
6696;DHT22;3385;48.928;10.330;2022-09-03T09:46:33;21.20;99.90
6696;DHT22;3385;48.928;10.330;2022-09-03T09:48:59;21.40;99.90
6696;DHT22;3385;48.928;10.330;2022-09-03T09:51:30;21.70;99.90
6696;DHT22;3385;48.928;10.330;2022-09-03T09:56:29;21.60;99.90
6696;DHT22;3385;48.928;10.330;2022-09-03T09:59:07;21.40;99.90
6696;DHT22;3385;48.928;10.330;2022-09-03T10:01:33;21.20;99.90
6696;DHT22;3385;48.928;10.330;2022-09-03T10:06:34;21.40;99.90
6696;DHT22;3385;48.928;10.330;2022-09-03T10:09:20;21.40;99.90
6696;DHT22;3385;48.928;10.330;2022-09-03T10:14:46;21.50;99.90
6696;DHT22;3385;48.928;10.330;2022-09-03T10:17:26;21.60;99.90
6696;DHT22;3385;48.928;10.330;2022-09-03T10:20:10;21.70;99.90
6696;DHT22;3385;48.928;10.330;2022-09-03T10:25:25;21.60;99.90
6696;DHT22;3385;48.928;10.330;2022-09-03T10:27:51;21.70;99.90
6696;DHT22;3385;48.928;10.330;2022-09-03T10:30:21;21.70;99.90
6696;DHT22;3385;48.928;10.330;2022-09-03T10:33:09;21.70;99.90
6696;DHT22;3385;48.928;10.330;2022-09-03T10:35:44;21.80;99.90
6696;DHT22;3385;48.928;10.330;2022-09-03T10:47:09;22.20;99.90
6696;DHT22;3385;48.928;10.330;2022-09-03T11:00:46;25.10;99.90
6696;DHT22;3385;48.928;10.330;2022-09-03T11:06:00;25.20;99.90
6696;DHT22;3385;48.928;10.330;2022-09-03T11:08:50;25.20;99.90
6696;DHT22;3385;48.928;10.330;2022-09-03T11:11:34;25.00;99.90
6696;DHT22;3385;48.928;10.330;2022-09-03T11:14:09;24.90;99.90
6696;DHT22;3385;48.928;10.330;2022-09-03T11:16:46;25.00;99.90
6696;DHT22;3385;48.928;10.330;2022-09-03T11:19:16;25.30;99.90
6696;DHT22;3385;48.928;10.330;2022-09-03T11:21:43;25.90;99.90
6696;DHT22;3385;48.928;10.330;2022-09-03T11:24:21;26.50;99.90
6696;DHT22;3385;48.928;10.330;2022-09-03T11:27:31;26.90;99.90
6696;DHT22;3385;48.928;10.330;2022-09-03T11:30:08;26.40;99.90
6696;DHT22;3385;48.928;10.330;2022-09-03T11:32:51;26.00;99.90
6696;DHT22;3385;48.928;10.330;2022-09-03T11:38:02;26.40;99.90
6696;DHT22;3385;48.928;10.330;2022-09-03T11:40:34;26.40;99.90
6696;DHT22;3385;48.928;10.330;2022-09-03T11:45:48;26.50;99.90
6696;DHT22;3385;48.928;10.330;2022-09-03T11:48:37;26.90;99.90
6696;DHT22;3385;48.928;10.330;2022-09-03T11:51:14;26.80;99.90
6696;DHT22;3385;48.928;10.330;2022-09-03T11:53:41;26.40;99.90
6696;DHT22;3385;48.928;10.330;2022-09-03T11:58:35;25.00;99.90
6696;DHT22;3385;48.928;10.330;2022-09-03T12:01:06;24.70;99.90
6696;DHT22;3385;48.928;10.330;2022-09-03T12:03:50;25.60;99.90
6696;DHT22;3385;48.928;10.330;2022-09-03T12:09:52;27.20;99.90
6696;DHT22;3385;48.928;10.330;2022-09-03T12:20:36;28.30;96.80
6696;DHT22;3385;48.928;10.330;2022-09-03T12:23:02;28.00;98.30
6696;DHT22;3385;48.928;10.330;2022-09-03T12:25:28;28.20;98.30
6696;DHT22;3385;48.928;10.330;2022-09-03T12:27:54;28.10;97.60
6696;DHT22;3385;48.928;10.330;2022-09-03T12:30:23;27.70;98.30
6696;DHT22;3385;48.928;10.330;2022-09-03T12:32:50;27.10;96.70
6696;DHT22;3385;48.928;10.330;2022-09-03T12:35:23;26.60;96.00
6696;DHT22;3385;48.928;10.330;2022-09-03T12:37:51;26.20;98.40
6696;DHT22;3385;48.928;10.330;2022-09-03T12:40:28;25.70;97.70
6696;DHT22;3385;48.928;10.330;2022-09-03T12:42:55;25.20;99.90
6696;DHT22;3385;48.928;10.330;2022-09-03T12:45:42;24.60;99.90
6696;DHT22;3385;48.928;10.330;2022-09-03T12:48:13;24.10;99.90
6696;DHT22;3385;48.928;10.330;2022-09-03T12:50:41;23.70;99.90
6696;DHT22;3385;48.928;10.330;2022-09-03T12:53:08;23.30;99.90
6696;DHT22;3385;48.928;10.330;2022-09-03T13:00:43;22.60;99.90
6696;DHT22;3385;48.928;10.330;2022-09-03T13:03:37;22.40;99.90
6696;DHT22;3385;48.928;10.330;2022-09-03T13:06:09;22.30;99.90
6696;DHT22;3385;48.928;10.330;2022-09-03T13:08:43;22.20;99.90
6696;DHT22;3385;48.928;10.330;2022-09-03T13:11:18;22.00;99.90
6696;DHT22;3385;48.928;10.330;2022-09-03T13:14:04;21.90;99.90
6696;DHT22;3385;48.928;10.330;2022-09-03T13:35:37;21.20;99.90
6696;DHT22;3385;48.928;10.330;2022-09-03T13:38:14;21.20;99.90
6696;DHT22;3385;48.928;10.330;2022-09-03T13:43:27;20.30;99.90
6696;DHT22;3385;48.928;10.330;2022-09-03T13:46:06;19.40;99.90
6696;DHT22;3385;48.928;10.330;2022-09-03T13:48:40;18.40;99.90
6696;DHT22;3385;48.928;10.330;2022-09-03T13:51:46;17.50;99.90
6696;DHT22;3385;48.928;10.330;2022-09-03T13:54:30;17.00;99.90
6696;DHT22;3385;48.928;10.330;2022-09-03T14:13:18;14.90;99.90
6696;DHT22;3385;48.928;10.330;2022-09-03T14:15:51;14.90;99.90
6696;DHT22;3385;48.928;10.330;2022-09-03T14:26:31;14.60;99.90
6696;DHT22;3385;48.928;10.330;2022-09-03T14:29:15;14.60;99.90
6696;DHT22;3385;48.928;10.330;2022-09-03T14:40:30;14.60;99.90
6696;DHT22;3385;48.928;10.330;2022-09-03T15:00:20;15.40;99.90
6696;DHT22;3385;48.928;10.330;2022-09-03T15:11:31;15.50;99.90
6696;DHT22;3385;48.928;10.330;2022-09-03T15:14:19;15.50;99.90
6696;DHT22;3385;48.928;10.330;2022-09-03T15:22:13;15.50;99.90
6696;DHT22;3385;48.928;10.330;2022-09-03T15:30:11;15.70;99.90
6696;DHT22;3385;48.928;10.330;2022-09-03T15:40:57;16.50;99.90
6696;DHT22;3385;48.928;10.330;2022-09-03T15:43:33;16.80;99.90
6696;DHT22;3385;48.928;10.330;2022-09-03T15:46:11;16.80;99.90
6696;DHT22;3385;48.928;10.330;2022-09-03T15:49:00;16.80;99.90
6696;DHT22;3385;48.928;10.330;2022-09-03T15:51:33;16.90;99.90
6696;DHT22;3385;48.928;10.330;2022-09-03T15:54:09;17.00;99.90
6696;DHT22;3385;48.928;10.330;2022-09-03T15:59:31;17.80;99.90
6696;DHT22;3385;48.928;10.330;2022-09-03T16:05:06;18.10;99.90
6696;DHT22;3385;48.928;10.330;2022-09-03T16:10:19;18.40;99.90
6696;DHT22;3385;48.928;10.330;2022-09-03T16:13:08;18.50;99.90
6696;DHT22;3385;48.928;10.330;2022-09-03T16:15:47;18.50;99.90
6696;DHT22;3385;48.928;10.330;2022-09-03T16:18:26;18.60;99.90
6696;DHT22;3385;48.928;10.330;2022-09-03T16:21:06;19.10;99.90
6696;DHT22;3385;48.928;10.330;2022-09-03T16:26:36;19.50;99.90
6696;DHT22;3385;48.928;10.330;2022-09-03T16:29:15;19.60;99.90
6696;DHT22;3385;48.928;10.330;2022-09-03T16:31:54;19.60;99.90
6696;DHT22;3385;48.928;10.330;2022-09-03T16:37:14;20.00;99.90
6696;DHT22;3385;48.928;10.330;2022-09-03T17:20:41;17.60;99.90
6696;DHT22;3385;48.928;10.330;2022-09-03T17:31:38;17.00;99.90
6696;DHT22;3385;48.928;10.330;2022-09-03T17:37:13;16.60;99.90
6696;DHT22;3385;48.928;10.330;2022-09-03T17:45:40;16.30;99.90
6696;DHT22;3385;48.928;10.330;2022-09-03T17:50:54;16.20;99.90
6696;DHT22;3385;48.928;10.330;2022-09-03T17:53:26;16.00;99.90
6696;DHT22;3385;48.928;10.330;2022-09-03T17:56:00;15.90;99.90
6696;DHT22;3385;48.928;10.330;2022-09-03T17:58:34;15.90;99.90
6696;DHT22;3385;48.928;10.330;2022-09-03T18:03:45;15.70;99.90
6696;DHT22;3385;48.928;10.330;2022-09-03T18:06:33;15.50;99.90
6696;DHT22;3385;48.928;10.330;2022-09-03T18:11:46;15.30;99.90
6696;DHT22;3385;48.928;10.330;2022-09-03T18:14:29;15.30;99.90
6696;DHT22;3385;48.928;10.330;2022-09-03T18:17:03;15.10;99.90
6696;DHT22;3385;48.928;10.330;2022-09-03T18:19:38;15.00;99.90
6696;DHT22;3385;48.928;10.330;2022-09-03T18:22:30;15.00;99.90
6696;DHT22;3385;48.928;10.330;2022-09-03T18:25:16;14.90;99.90
6696;DHT22;3385;48.928;10.330;2022-09-03T18:28:05;14.90;99.90
6696;DHT22;3385;48.928;10.330;2022-09-03T18:30:51;14.80;99.90
6696;DHT22;3385;48.928;10.330;2022-09-03T18:33:36;14.80;99.90
6696;DHT22;3385;48.928;10.330;2022-09-03T18:36:20;14.70;99.90
6696;DHT22;3385;48.928;10.330;2022-09-03T18:42:10;14.60;99.90
6696;DHT22;3385;48.928;10.330;2022-09-03T19:00:38;14.40;99.90
6696;DHT22;3385;48.928;10.330;2022-09-03T19:07:28;14.30;99.90
6696;DHT22;3385;48.928;10.330;2022-09-03T19:13:12;14.20;99.90
6696;DHT22;3385;48.928;10.330;2022-09-03T19:16:12;14.10;99.90
6696;DHT22;3385;48.928;10.330;2022-09-03T19:22:10;14.00;99.90
6696;DHT22;3385;48.928;10.330;2022-09-03T19:25:01;14.00;99.90
6696;DHT22;3385;48.928;10.330;2022-09-03T19:28:14;13.90;99.90
6696;DHT22;3385;48.928;10.330;2022-09-03T19:31:11;13.90;99.90
6696;DHT22;3385;48.928;10.330;2022-09-03T19:37:34;15.50;99.90
6696;DHT22;3385;48.928;10.330;2022-09-03T19:46:50;13.90;99.90
6696;DHT22;3385;48.928;10.330;2022-09-03T19:52:52;13.80;99.90
6696;DHT22;3385;48.928;10.330;2022-09-03T19:55:40;13.70;99.90
6696;DHT22;3385;48.928;10.330;2022-09-03T19:58:30;13.60;99.90
6696;DHT22;3385;48.928;10.330;2022-09-03T20:01:16;13.60;99.90
6696;DHT22;3385;48.928;10.330;2022-09-03T20:04:13;13.50;99.90
6696;DHT22;3385;48.928;10.330;2022-09-03T20:07:01;13.50;99.90
6696;DHT22;3385;48.928;10.330;2022-09-03T20:09:46;13.40;99.90
6696;DHT22;3385;48.928;10.330;2022-09-03T20:12:38;13.30;99.90
6696;DHT22;3385;48.928;10.330;2022-09-03T20:15:06;13.30;99.90
6696;DHT22;3385;48.928;10.330;2022-09-03T20:17:48;13.30;99.90
6696;DHT22;3385;48.928;10.330;2022-09-03T20:20:27;13.30;99.90
6696;DHT22;3385;48.928;10.330;2022-09-03T20:23:03;13.20;99.90
6696;DHT22;3385;48.928;10.330;2022-09-03T20:28:21;13.20;99.90
6696;DHT22;3385;48.928;10.330;2022-09-03T20:31:00;13.20;99.90
6696;DHT22;3385;48.928;10.330;2022-09-03T20:41:36;13.10;99.90
6696;DHT22;3385;48.928;10.330;2022-09-03T20:52:05;13.10;99.90
6696;DHT22;3385;48.928;10.330;2022-09-03T20:54:46;13.20;99.90
6696;DHT22;3385;48.928;10.330;2022-09-03T20:57:35;13.20;99.90
6696;DHT22;3385;48.928;10.330;2022-09-03T21:05:33;13.00;99.90
6696;DHT22;3385;48.928;10.330;2022-09-03T21:08:17;12.80;99.90
6696;DHT22;3385;48.928;10.330;2022-09-03T21:13:40;12.60;99.90
6696;DHT22;3385;48.928;10.330;2022-09-03T21:19:06;12.60;99.90
6696;DHT22;3385;48.928;10.330;2022-09-03T21:24:25;12.60;99.90
6696;DHT22;3385;48.928;10.330;2022-09-03T21:27:05;12.60;99.90
6696;DHT22;3385;48.928;10.330;2022-09-03T21:30:06;12.60;99.90
6696;DHT22;3385;48.928;10.330;2022-09-03T21:35:17;12.60;99.90
6696;DHT22;3385;48.928;10.330;2022-09-03T21:37:57;12.70;99.90
6696;DHT22;3385;48.928;10.330;2022-09-03T21:40:26;12.70;99.90
6696;DHT22;3385;48.928;10.330;2022-09-03T21:46:08;12.70;99.90
6696;DHT22;3385;48.928;10.330;2022-09-03T21:51:29;12.70;99.90
6696;DHT22;3385;48.928;10.330;2022-09-03T21:54:29;12.80;99.90
6696;DHT22;3385;48.928;10.330;2022-09-03T22:02:27;12.80;99.90
6696;DHT22;3385;48.928;10.330;2022-09-03T22:04:55;12.80;99.90
6696;DHT22;3385;48.928;10.330;2022-09-03T22:11:05;12.80;99.90
6696;DHT22;3385;48.928;10.330;2022-09-03T22:13:45;12.90;99.90
6696;DHT22;3385;48.928;10.330;2022-09-03T22:16:26;12.90;99.90
6696;DHT22;3385;48.928;10.330;2022-09-03T22:18:56;12.90;99.90
6696;DHT22;3385;48.928;10.330;2022-09-03T22:21:31;12.90;99.90
6696;DHT22;3385;48.928;10.330;2022-09-03T22:32:33;12.70;99.90
6696;DHT22;3385;48.928;10.330;2022-09-03T22:40:48;12.50;99.90
6696;DHT22;3385;48.928;10.330;2022-09-03T22:51:08;12.20;99.90
6696;DHT22;3385;48.928;10.330;2022-09-03T22:56:30;12.20;99.90
6696;DHT22;3385;48.928;10.330;2022-09-03T22:58:58;12.20;99.90
6696;DHT22;3385;48.928;10.330;2022-09-03T23:01:38;12.30;99.90
6696;DHT22;3385;48.928;10.330;2022-09-03T23:06:43;12.30;99.90
6696;DHT22;3385;48.928;10.330;2022-09-03T23:09:23;12.30;99.90
6696;DHT22;3385;48.928;10.330;2022-09-03T23:11:53;12.30;99.90
6696;DHT22;3385;48.928;10.330;2022-09-03T23:14:32;12.30;99.90
6696;DHT22;3385;48.928;10.330;2022-09-03T23:17:08;12.30;99.90
6696;DHT22;3385;48.928;10.330;2022-09-03T23:22:16;12.30;99.90
6696;DHT22;3385;48.928;10.330;2022-09-03T23:25:05;12.30;99.90
6696;DHT22;3385;48.928;10.330;2022-09-03T23:27:40;12.30;99.90
6696;DHT22;3385;48.928;10.330;2022-09-03T23:30:08;12.30;99.90
6696;DHT22;3385;48.928;10.330;2022-09-03T23:32:33;12.30;99.90
6696;DHT22;3385;48.928;10.330;2022-09-03T23:35:02;12.40;99.90
6696;DHT22;3385;48.928;10.330;2022-09-03T23:37:46;12.40;99.90
6696;DHT22;3385;48.928;10.330;2022-09-03T23:45:42;12.60;99.90
